createdAt,value
2023-02-19T00:00:34.179Z,6.67
2023-02-19T00:03:36.734Z,6.83
2023-02-19T00:06:38.471Z,6.20
2023-02-19T00:09:40.174Z,5.70
2023-02-19T00:12:41.855Z,5.93
2023-02-19T00:15:43.552Z,5.90
2023-02-19T00:18:45.828Z,5.20
2023-02-19T00:21:51.631Z,4.90
2023-02-19T00:24:53.288Z,4.50
2023-02-19T00:27:54.940Z,4.87
2023-02-19T00:30:56.625Z,4.83
2023-02-19T00:34:00.841Z,4.10
2023-02-19T00:37:02.486Z,3.90
2023-02-19T00:40:04.354Z,4.20
2023-02-19T00:43:06.092Z,3.93
2023-02-19T00:46:07.805Z,4.07
2023-02-19T00:49:16.175Z,4.23
2023-02-19T00:52:17.829Z,4.47
2023-02-19T00:55:19.509Z,3.53
2023-02-19T00:58:21.152Z,3.47
2023-02-19T01:01:42.657Z,4.77
2023-02-19T01:04:44.349Z,4.60
2023-02-19T01:07:46.038Z,4.80
2023-02-19T01:10:47.884Z,4.87
2023-02-19T01:13:49.708Z,4.23
2023-02-19T01:16:51.374Z,3.70
2023-02-19T01:19:53.068Z,3.30
2023-02-19T01:22:55.062Z,3.73
2023-02-19T01:25:56.746Z,5.30
2023-02-19T01:29:02.569Z,2.73
2023-02-19T01:32:04.417Z,2.93
2023-02-19T01:35:06.514Z,3.70
2023-02-19T01:38:08.304Z,3.93
2023-02-19T01:41:16.220Z,5.03
2023-02-19T01:44:18.502Z,4.63
2023-02-19T01:47:20.695Z,5.37
2023-02-19T01:50:23.172Z,6.20
2023-02-19T01:53:30.454Z,7.40
2023-02-19T01:56:34.649Z,7.87
2023-02-19T01:59:37.140Z,7.83
2023-02-19T02:02:41.045Z,8.47
2023-02-19T02:05:56.890Z,9.23
2023-02-19T02:09:17.945Z,9.60
2023-02-19T02:12:19.804Z,7.93
2023-02-19T02:15:24.101Z,7.90
2023-02-19T02:18:34.341Z,7.50
2023-02-19T02:21:41.994Z,7.47
2023-02-19T02:25:08.741Z,6.53
2023-02-19T02:28:55.905Z,6.87
2023-02-19T02:32:03.851Z,7.10
2023-02-19T02:35:13.438Z,6.50
2023-02-19T02:38:18.260Z,6.60
2023-02-19T02:41:21.242Z,7.17
2023-02-19T02:44:22.917Z,6.40
2023-02-19T02:47:45.292Z,7.53
2023-02-19T02:51:13.978Z,7.53
2023-02-19T02:54:40.529Z,8.20
2023-02-19T02:57:42.353Z,8.10
2023-02-19T03:01:07.875Z,8.40
2023-02-19T03:04:20.162Z,7.50
2023-02-19T03:07:21.910Z,7.67
2023-02-19T03:10:31.360Z,8.17
2023-02-19T03:13:55.994Z,8.97
2023-02-19T03:17:23.239Z,8.83
2023-02-19T03:20:25.204Z,10.33
2023-02-19T03:23:51.081Z,9.73
2023-02-19T03:26:54.059Z,10.20
2023-02-19T03:29:59.682Z,10.00
2023-02-19T03:33:09.882Z,11.13
2023-02-19T03:36:15.649Z,11.20
2023-02-19T03:39:21.788Z,10.47
2023-02-19T03:42:26.236Z,11.00
2023-02-19T03:45:43.088Z,12.27
2023-02-19T03:48:51.861Z,12.40
2023-02-19T03:52:18.629Z,11.57
2023-02-19T03:55:45.670Z,12.50
2023-02-19T03:59:16.353Z,11.93
2023-02-19T04:02:44.450Z,12.07
2023-02-19T04:05:52.743Z,12.63
2023-02-19T04:08:58.202Z,11.93
2023-02-19T04:12:00.516Z,11.90
2023-02-19T04:15:08.996Z,12.90
2023-02-19T04:18:18.942Z,12.00
2023-02-19T04:21:22.444Z,11.37
2023-02-19T04:24:45.640Z,12.47
2023-02-19T04:27:47.373Z,11.70
2023-02-19T04:30:49.197Z,12.40
2023-02-19T04:33:50.920Z,12.60
2023-02-19T04:36:52.533Z,12.60
2023-02-19T04:39:54.223Z,13.47
2023-02-19T04:42:55.898Z,13.37
2023-02-19T04:46:01.897Z,11.43
2023-02-19T04:49:03.694Z,12.30
2023-02-19T04:52:05.333Z,12.37
2023-02-19T04:55:07.704Z,11.57
2023-02-19T04:58:09.387Z,11.00
2023-02-19T05:01:11.782Z,11.10
2023-02-19T05:04:16.028Z,11.43
2023-02-19T05:07:18.050Z,11.33
2023-02-19T05:10:19.683Z,10.87
2023-02-19T05:13:21.390Z,10.80
2023-02-19T05:16:23.260Z,10.33
2023-02-19T05:19:24.920Z,12.20
2023-02-19T05:22:28.164Z,11.97
2023-02-19T05:25:29.813Z,5.93
2023-02-19T05:28:31.686Z,5.83
2023-02-19T05:31:36.492Z,5.10
2023-02-19T05:34:38.221Z,4.17
2023-02-19T05:37:39.878Z,5.07
2023-02-19T05:40:41.902Z,4.33
2023-02-19T05:43:45.746Z,4.73
2023-02-19T05:46:47.526Z,5.00
2023-02-19T05:49:49.172Z,5.53
2023-02-19T05:52:50.837Z,5.33
2023-02-19T05:55:52.625Z,5.87
2023-02-19T05:58:54.796Z,6.20
2023-02-19T06:01:58.140Z,5.97
2023-02-19T06:04:59.850Z,5.73
2023-02-19T06:08:01.572Z,5.87
2023-02-19T06:11:03.204Z,6.13
2023-02-19T06:14:05.369Z,5.63
2023-02-19T06:17:07.062Z,5.90
2023-02-19T06:20:09.315Z,5.33
2023-02-19T06:23:10.938Z,5.30
2023-02-19T06:26:16.109Z,5.10
2023-02-19T06:29:20.619Z,6.80
2023-02-19T06:32:23.264Z,4.77
2023-02-19T06:35:24.963Z,5.10
2023-02-19T06:38:27.096Z,5.37
2023-02-19T06:41:28.851Z,5.57
2023-02-19T06:44:30.539Z,5.70
2023-02-19T06:47:33.334Z,5.83
2023-02-19T06:50:35.058Z,6.10
2023-02-19T06:53:36.762Z,6.13
2023-02-19T06:56:39.896Z,5.90
2023-02-19T06:59:41.540Z,6.57
2023-02-19T07:02:43.196Z,5.77
2023-02-19T07:05:44.915Z,18.17
2023-02-19T07:08:46.640Z,7.77
2023-02-19T07:11:48.274Z,5.80
2023-02-19T07:14:49.962Z,6.40
2023-02-19T07:17:51.626Z,6.83
2023-02-19T07:20:53.322Z,6.43
2023-02-19T07:23:55.621Z,9.57
2023-02-19T07:26:57.353Z,3.70
2023-02-19T07:29:59.222Z,1.60
2023-02-19T07:33:00.964Z,1.83
2023-02-19T07:36:02.874Z,0.97
2023-02-19T07:39:05.082Z,0.70
2023-02-19T07:42:06.776Z,1.03
2023-02-19T07:45:08.557Z,0.90
2023-02-19T07:48:10.200Z,0.80
2023-02-19T07:51:16.513Z,1.10
2023-02-19T07:54:18.158Z,1.20
2023-02-19T07:57:19.891Z,1.13
2023-02-19T08:00:21.736Z,1.00
2023-02-19T08:03:23.489Z,1.27
2023-02-19T08:06:25.165Z,1.30
2023-02-19T08:09:26.834Z,2.10
2023-02-19T08:12:46.953Z,1.30
2023-02-19T08:16:20.190Z,1.33
2023-02-19T08:19:25.981Z,1.23
2023-02-19T08:22:27.654Z,1.13
2023-02-19T08:25:29.346Z,1.17
2023-02-19T08:28:31.545Z,1.20
2023-02-19T08:31:34.609Z,1.40
2023-02-19T08:34:37.034Z,1.20
2023-02-19T08:37:38.698Z,1.10
2023-02-19T08:40:55.825Z,1.13
2023-02-19T08:44:05.666Z,1.10
2023-02-19T08:47:12.492Z,1.40
2023-02-19T08:50:53.149Z,1.40
2023-02-19T08:53:54.809Z,1.20
2023-02-19T08:56:56.469Z,1.27
2023-02-19T08:59:58.276Z,1.20
2023-02-19T09:03:00.042Z,1.40
2023-02-19T09:06:01.684Z,1.40
2023-02-19T09:09:03.384Z,1.40
2023-02-19T09:12:09.651Z,1.80
2023-02-19T09:15:12.216Z,1.50
2023-02-19T09:18:13.890Z,1.67
2023-02-19T09:21:15.892Z,1.80
2023-02-19T09:24:17.563Z,1.40
2023-02-19T09:27:20.528Z,1.50
2023-02-19T09:30:22.323Z,1.50
2023-02-19T09:33:24.169Z,1.70
2023-02-19T09:36:26.099Z,1.60
2023-02-19T09:39:27.756Z,1.33
2023-02-19T09:42:32.086Z,1.13
2023-02-19T09:45:35.911Z,1.33
2023-02-19T09:48:37.811Z,1.30
2023-02-19T09:51:43.814Z,1.13
2023-02-19T09:54:46.727Z,1.10
2023-02-19T09:57:49.725Z,1.30
2023-02-19T10:00:52.685Z,1.27
2023-02-19T10:03:54.791Z,1.33
2023-02-19T10:07:03.282Z,1.60
2023-02-19T10:10:13.900Z,1.20
2023-02-19T10:13:19.974Z,1.50
2023-02-19T10:16:26.506Z,1.40
2023-02-19T10:19:28.218Z,1.40
2023-02-19T10:22:32.520Z,1.53
2023-02-19T10:26:07.927Z,1.43
2023-02-19T10:29:10.222Z,1.50
2023-02-19T10:32:26.282Z,1.30
2023-02-19T10:35:28.850Z,1.33
2023-02-19T10:38:37.226Z,1.37
2023-02-19T10:41:44.053Z,1.53
2023-02-19T10:44:49.762Z,1.33
2023-02-19T10:47:52.624Z,1.13
2023-02-19T10:50:58.117Z,1.33
2023-02-19T10:54:24.980Z,1.03
2023-02-19T10:57:30.310Z,1.10
2023-02-19T11:00:31.995Z,0.83
2023-02-19T11:03:33.666Z,0.60
2023-02-19T11:06:37.360Z,0.70
2023-02-19T11:09:42.841Z,1.00
2023-02-19T11:12:49.116Z,0.70
2023-02-19T11:15:54.437Z,0.70
2023-02-19T11:18:57.312Z,0.70
2023-02-19T11:22:00.625Z,0.80
2023-02-19T11:25:17.720Z,0.80
2023-02-19T11:28:35.061Z,1.10
2023-02-19T11:31:37.518Z,0.83
2023-02-19T11:34:39.274Z,1.43
2023-02-19T11:38:08.778Z,0.60
2023-02-19T11:41:16.226Z,0.70
2023-02-19T11:44:44.865Z,0.93
2023-02-19T11:47:55.916Z,0.90
2023-02-19T11:51:28.177Z,2.23
2023-02-19T11:54:46.093Z,1.07
2023-02-19T11:58:03.075Z,0.90
2023-02-19T12:01:45.831Z,0.97
2023-02-19T12:05:01.571Z,1.13
2023-02-19T12:08:03.241Z,0.70
2023-02-19T12:11:18.120Z,0.80
2023-02-19T12:14:47.557Z,0.80
2023-02-19T12:17:58.006Z,1.20
2023-02-19T12:21:09.990Z,0.70
2023-02-19T12:24:17.591Z,0.77
2023-02-19T12:27:50.955Z,1.20
2023-02-19T12:31:20.129Z,0.70
2023-02-19T12:34:59.192Z,2.87
2023-02-19T12:38:12.958Z,1.23
2023-02-19T12:41:53.865Z,0.80
2023-02-19T12:45:04.046Z,0.70
2023-02-19T12:48:16.771Z,1.07
2023-02-19T12:51:44.842Z,0.90
2023-02-19T12:54:50.085Z,0.90
2023-02-19T12:57:53.494Z,0.90
2023-02-19T13:00:59.614Z,1.33
2023-02-19T13:04:19.437Z,1.10
2023-02-19T13:07:27.992Z,1.40
2023-02-19T13:11:17.592Z,1.17
2023-02-19T13:14:31.292Z,1.00
2023-02-19T13:17:47.112Z,1.50
2023-02-19T13:20:51.825Z,1.80
2023-02-19T13:23:59.528Z,1.53
2023-02-19T13:27:08.586Z,2.00
2023-02-19T13:30:32.816Z,1.50
2023-02-19T13:33:54.288Z,1.57
2023-02-19T13:36:56.577Z,1.50
2023-02-19T13:40:04.516Z,1.50
2023-02-19T13:43:22.293Z,1.60
2023-02-19T13:46:25.123Z,1.53
2023-02-19T13:49:34.118Z,2.37
2023-02-19T13:52:40.445Z,2.70
2023-02-19T13:55:52.090Z,1.77
2023-02-19T13:59:00.502Z,1.40
2023-02-19T14:02:02.211Z,1.10
2023-02-19T14:05:10.453Z,1.50
2023-02-19T14:08:12.120Z,2.40
2023-02-19T14:11:57.641Z,1.40
2023-02-19T14:15:25.280Z,1.27
2023-02-19T14:18:56.491Z,0.97
2023-02-19T14:21:58.182Z,1.17
2023-02-19T14:25:00.923Z,1.00
2023-02-19T14:28:20.862Z,1.10
2023-02-19T14:31:31.790Z,0.83
2023-02-19T14:34:33.653Z,1.13
2023-02-19T14:37:35.372Z,0.80
2023-02-19T14:40:39.737Z,4.67
2023-02-19T14:43:42.230Z,1.30
2023-02-19T14:51:45.196Z,0.97
2023-02-19T14:55:03.897Z,1.00
2023-02-19T14:58:10.409Z,1.13
2023-02-19T15:01:28.528Z,1.00
2023-02-19T15:04:36.286Z,1.00
2023-02-19T15:07:38.063Z,1.13
2023-02-19T15:10:42.826Z,0.90
2023-02-19T15:13:52.180Z,1.20
2023-02-19T15:16:58.134Z,1.00
2023-02-19T15:20:08.780Z,1.00
2023-02-19T15:23:20.824Z,1.30
2023-02-19T15:26:44.857Z,1.13
2023-02-19T15:29:48.270Z,1.60
2023-02-19T15:32:55.069Z,1.30
2023-02-19T15:36:00.537Z,1.50
2023-02-19T15:39:02.951Z,1.30
2023-02-19T15:42:06.720Z,1.60
2023-02-19T15:45:21.569Z,1.20
2023-02-19T15:48:29.095Z,1.30
2023-02-19T15:51:44.405Z,1.40
2023-02-19T15:55:19.048Z,1.30
2023-02-19T15:58:30.986Z,1.30
2023-02-19T16:01:37.671Z,1.70
2023-02-19T16:04:41.892Z,2.00
2023-02-19T16:07:44.015Z,1.83
2023-02-19T16:11:05.037Z,1.90
2023-02-19T16:14:37.058Z,2.07
2023-02-19T16:17:43.426Z,2.23
2023-02-19T16:20:47.765Z,1.93
2023-02-19T16:27:07.669Z,1.77
2023-02-19T16:30:25.239Z,2.30
2023-02-19T16:33:48.392Z,1.80
2023-02-19T16:36:50.251Z,2.10
2023-02-19T16:40:08.393Z,2.10
2023-02-19T16:43:26.697Z,1.80
2023-02-19T16:46:29.494Z,2.37
2023-02-19T16:49:31.473Z,1.97
2023-02-19T16:52:33.165Z,1.97
2023-02-19T16:55:35.181Z,1.47
2023-02-19T16:58:39.850Z,1.60
2023-02-19T17:01:41.907Z,2.60
2023-02-19T17:04:43.749Z,3.20
2023-02-19T17:07:45.761Z,4.00
2023-02-19T17:10:47.426Z,4.67
2023-02-19T17:13:49.034Z,4.37
2023-02-19T17:16:50.720Z,3.40
2023-02-19T17:19:52.359Z,2.57
2023-02-19T17:22:55.516Z,3.17
2023-02-19T17:25:57.149Z,3.40
2023-02-19T17:29:00.736Z,3.17
2023-02-19T17:32:02.698Z,3.33
2023-02-19T17:35:04.592Z,2.20
2023-02-19T17:38:09.549Z,2.27
2023-02-19T17:41:11.588Z,2.37
2023-02-19T17:44:13.461Z,2.33
2023-02-19T17:47:15.158Z,4.03
2023-02-19T17:50:19.496Z,3.60
2023-02-19T17:53:21.572Z,3.33
2023-02-19T17:56:26.096Z,3.80
2023-02-19T17:59:27.767Z,2.70
2023-02-19T18:02:29.513Z,2.50
2023-02-19T18:05:31.408Z,2.67
2023-02-19T18:08:33.060Z,3.03
2023-02-19T18:11:37.008Z,3.13
2023-02-19T18:19:02.198Z,3.00
2023-02-19T18:22:06.291Z,2.30
2023-02-19T18:25:09.018Z,2.57
2023-02-19T18:28:10.836Z,2.60
2023-02-19T18:31:12.788Z,2.77
2023-02-19T18:34:20.750Z,2.80
2023-02-19T18:37:24.261Z,2.60
2023-02-19T18:40:35.350Z,2.50
2023-02-19T18:43:37.040Z,2.80
2023-02-19T18:46:42.834Z,2.83
2023-02-19T18:49:49.136Z,2.97
2023-02-19T18:53:18.852Z,4.40
2023-02-19T18:56:20.592Z,4.10
2023-02-19T18:59:22.972Z,4.57
2023-02-19T19:02:24.671Z,4.80
2023-02-19T19:05:27.005Z,4.53
2023-02-19T19:09:23.274Z,5.13
2023-02-19T19:12:24.986Z,5.67
2023-02-19T19:15:26.890Z,4.90
2023-02-19T19:18:30.220Z,5.70
2023-02-19T19:21:31.948Z,5.73
2023-02-19T19:24:33.617Z,5.80
2023-02-19T19:27:35.312Z,5.73
2023-02-19T19:30:37.077Z,5.07
2023-02-19T19:33:38.922Z,5.07
2023-02-19T19:36:40.581Z,4.93
2023-02-19T19:39:43.350Z,4.30
2023-02-19T19:42:45.328Z,4.07
2023-02-19T19:45:47.004Z,5.80
2023-02-19T19:48:56.870Z,6.13
2023-02-19T19:52:01.006Z,7.73
2023-02-19T19:55:02.938Z,5.07
2023-02-19T19:58:04.654Z,4.83
2023-02-19T20:01:06.800Z,5.07
2023-02-19T20:04:08.673Z,5.27
2023-02-19T20:07:10.516Z,4.30
2023-02-19T20:10:13.482Z,4.60
2023-02-19T20:13:19.483Z,4.33
2023-02-19T20:16:28.002Z,4.30
2023-02-19T20:19:29.618Z,4.17
2023-02-19T20:22:31.356Z,4.90
2023-02-19T20:25:33.039Z,4.90
2023-02-19T20:28:34.794Z,4.73
2023-02-19T20:31:37.713Z,5.30
2023-02-19T20:34:39.466Z,5.27
2023-02-19T20:37:41.196Z,5.37
2023-02-19T20:40:42.988Z,5.73
2023-02-19T20:43:44.662Z,5.57
2023-02-19T20:46:50.877Z,5.90
2023-02-19T20:49:52.644Z,6.80
2023-02-19T20:57:58.101Z,6.20
2023-02-19T21:00:59.831Z,5.93
2023-02-19T21:04:01.509Z,5.87
2023-02-19T21:07:04.254Z,5.63
2023-02-19T21:10:06.388Z,5.93
2023-02-19T21:13:08.000Z,7.77
2023-02-19T21:16:09.829Z,6.70
2023-02-19T21:19:11.785Z,6.20
2023-02-19T21:22:13.477Z,6.80
2023-02-19T21:25:15.172Z,7.50
2023-02-19T21:28:16.853Z,6.80
2023-02-19T21:31:19.673Z,7.30
2023-02-19T21:34:26.845Z,7.20
2023-02-19T21:37:28.688Z,6.40
2023-02-19T21:40:31.956Z,7.07
2023-02-19T21:43:33.607Z,6.43
2023-02-19T21:46:35.370Z,7.50
2023-02-19T21:49:41.802Z,7.07
2023-02-19T21:52:43.455Z,6.93
2023-02-19T21:55:57.955Z,7.67
2023-02-19T21:59:00.940Z,7.83
2023-02-19T22:02:02.640Z,6.33
2023-02-19T22:05:04.549Z,5.93
2023-02-19T22:08:06.169Z,7.07
2023-02-19T22:11:07.924Z,6.87
2023-02-19T22:14:09.853Z,7.00
2023-02-19T22:17:12.023Z,6.50
2023-02-19T22:20:14.140Z,6.90
2023-02-19T22:23:15.876Z,6.17
2023-02-19T22:26:30.308Z,5.83
2023-02-19T22:29:34.614Z,5.77
2023-02-19T22:32:36.433Z,5.97
2023-02-19T22:35:38.171Z,5.33
2023-02-19T22:38:39.851Z,5.90
2023-02-19T22:41:44.607Z,5.57
2023-02-19T22:44:46.261Z,5.30
2023-02-19T22:47:47.978Z,5.70
2023-02-19T22:51:05.157Z,6.53
2023-02-19T22:54:06.880Z,5.33
2023-02-19T22:57:08.561Z,5.37
2023-02-19T23:00:16.206Z,6.20
2023-02-19T23:03:17.907Z,7.13
2023-02-19T23:06:27.992Z,6.53
2023-02-19T23:09:29.897Z,8.00
2023-02-19T23:12:31.541Z,6.80
2023-02-19T23:15:33.362Z,7.67
2023-02-19T23:18:35.040Z,5.63
2023-02-19T23:21:37.252Z,6.33
2023-02-19T23:24:39.091Z,5.93
2023-02-19T23:27:40.790Z,5.80
2023-02-19T23:30:42.563Z,6.00
2023-02-19T23:38:22.302Z,6.30
2023-02-19T23:41:23.909Z,5.73
2023-02-19T23:44:26.011Z,5.97
2023-02-19T23:47:30.590Z,6.50
2023-02-19T23:50:32.404Z,6.10
2023-02-19T23:53:34.053Z,5.97
2023-02-19T23:56:35.864Z,6.40
2023-02-19T23:59:38.609Z,7.00
